createdAt,value
2022-12-27T00:02:30.329Z,1.95
2022-12-27T00:06:31.753Z,1.77
2022-12-27T00:10:33.448Z,2.13
2022-12-27T00:14:35.030Z,1.75
2022-12-27T00:18:36.762Z,1.40
2022-12-27T00:22:38.175Z,1.35
2022-12-27T00:26:40.974Z,1.58
2022-12-27T00:30:42.357Z,1.60
2022-12-27T00:34:43.829Z,1.23
2022-12-27T00:38:46.018Z,1.63
2022-12-27T00:42:47.412Z,1.33
2022-12-27T00:46:48.884Z,1.00
2022-12-27T00:50:50.286Z,1.23
2022-12-27T00:54:51.637Z,1.20
2022-12-27T00:58:54.569Z,1.30
2022-12-27T01:02:55.932Z,1.50
2022-12-27T01:06:57.317Z,0.93
2022-12-27T01:10:59.201Z,1.05
2022-12-27T01:15:00.568Z,1.00
2022-12-27T01:19:02.069Z,1.35
2022-12-27T01:23:03.423Z,1.42
2022-12-27T01:27:04.795Z,1.92
2022-12-27T01:31:10.575Z,1.33
2022-12-27T01:35:11.926Z,1.02
2022-12-27T01:39:14.015Z,1.40
2022-12-27T01:43:18.911Z,0.98
2022-12-27T01:47:44.765Z,0.95
2022-12-27T01:51:46.167Z,1.20
2022-12-27T01:55:51.885Z,1.13
2022-12-27T01:59:53.539Z,1.00
2022-12-27T02:04:07.433Z,1.08
2022-12-27T02:08:17.497Z,1.10
2022-12-27T02:12:20.218Z,1.67
2022-12-27T02:16:21.657Z,1.30
2022-12-27T02:20:23.883Z,1.10
2022-12-27T02:24:41.431Z,1.10
2022-12-27T02:29:01.397Z,0.98
2022-12-27T02:33:09.556Z,1.77
2022-12-27T02:37:12.732Z,1.23
2022-12-27T02:41:33.545Z,1.60
2022-12-27T02:45:59.031Z,1.50
2022-12-27T02:50:18.981Z,1.27
2022-12-27T02:54:38.216Z,1.38
2022-12-27T02:59:10.831Z,1.48
2022-12-27T03:03:21.336Z,1.17
2022-12-27T03:07:41.059Z,1.23
2022-12-27T03:12:05.185Z,1.42
2022-12-27T03:16:18.612Z,1.83
2022-12-27T03:20:40.515Z,1.50
2022-12-27T03:25:00.981Z,1.15
2022-12-27T03:29:21.592Z,1.20
2022-12-27T03:33:23.685Z,1.13
2022-12-27T03:37:50.377Z,1.10
2022-12-27T03:42:20.524Z,1.27
2022-12-27T03:46:36.518Z,1.23
2022-12-27T03:50:43.992Z,1.40
2022-12-27T03:54:47.403Z,1.27
2022-12-27T03:58:48.855Z,1.50
2022-12-27T04:02:50.396Z,1.20
2022-12-27T04:06:51.902Z,1.20
2022-12-27T04:11:11.671Z,1.55
2022-12-27T04:15:31.619Z,1.20
2022-12-27T04:19:51.429Z,1.83
2022-12-27T04:24:11.540Z,1.17
2022-12-27T04:28:31.623Z,1.27
2022-12-27T04:32:51.732Z,1.25
2022-12-27T04:36:53.154Z,1.50
2022-12-27T04:41:12.921Z,1.83
2022-12-27T04:45:33.316Z,1.30
2022-12-27T04:49:53.379Z,1.40
2022-12-27T04:54:13.504Z,1.48
2022-12-27T04:58:14.891Z,1.60
2022-12-27T05:02:17.355Z,1.20
2022-12-27T05:06:18.991Z,1.75
2022-12-27T05:10:38.775Z,2.17
2022-12-27T05:14:40.109Z,1.88
2022-12-27T05:18:41.555Z,1.38
2022-12-27T05:23:01.675Z,1.73
2022-12-27T05:27:03.133Z,1.77
2022-12-27T05:31:04.909Z,1.98
2022-12-27T05:35:06.577Z,2.08
2022-12-27T05:39:07.976Z,1.95
2022-12-27T05:43:09.341Z,1.77
2022-12-27T05:47:10.703Z,1.90
2022-12-27T05:51:19.780Z,1.80
2022-12-27T05:55:21.167Z,1.98
2022-12-27T05:59:22.501Z,1.80
2022-12-27T06:03:24.226Z,1.85
2022-12-27T06:07:25.679Z,1.90
2022-12-27T06:11:27.136Z,1.70
2022-12-27T06:15:28.772Z,1.83
2022-12-27T06:19:30.093Z,2.00
2022-12-27T06:23:32.549Z,2.15
2022-12-27T06:27:34.667Z,1.27
2022-12-27T06:31:36.075Z,1.75
2022-12-27T06:35:37.527Z,1.65
2022-12-27T06:39:38.874Z,1.73
2022-12-27T06:43:40.881Z,1.70
2022-12-27T06:47:42.247Z,2.33
2022-12-27T06:51:43.801Z,2.00
2022-12-27T06:55:45.208Z,2.22
2022-12-27T06:59:50.964Z,2.25
2022-12-27T07:03:57.573Z,2.03
2022-12-27T07:07:58.986Z,2.15
2022-12-27T07:12:00.446Z,2.28
2022-12-27T07:16:05.679Z,1.92
2022-12-27T07:20:07.773Z,1.50
2022-12-27T07:24:09.283Z,1.90
2022-12-27T07:28:10.643Z,1.63
2022-12-27T07:32:12.096Z,2.35
2022-12-27T07:36:16.937Z,2.53
2022-12-27T07:40:18.506Z,2.67
2022-12-27T07:44:19.867Z,2.22
2022-12-27T07:48:21.312Z,2.13
2022-12-27T07:52:22.673Z,3.10
2022-12-27T07:56:27.234Z,1.80
2022-12-27T08:00:30.066Z,1.48
2022-12-27T08:04:32.966Z,2.45
2022-12-27T08:08:40.413Z,2.17
2022-12-27T08:16:43.373Z,2.38
2022-12-27T08:20:44.842Z,1.83
2022-12-27T08:24:46.280Z,2.75
2022-12-27T08:28:47.653Z,2.00
2022-12-27T08:32:50.829Z,2.95
2022-12-27T08:36:55.585Z,2.05
2022-12-27T08:40:57.417Z,2.40
2022-12-27T08:44:58.772Z,2.08
2022-12-27T08:49:00.196Z,5.72
2022-12-27T08:53:02.843Z,2.80
2022-12-27T08:57:04.189Z,1.77
2022-12-27T09:01:07.062Z,2.17
2022-12-27T09:05:08.803Z,2.35
2022-12-27T09:09:10.219Z,1.90
2022-12-27T09:13:11.677Z,1.70
2022-12-27T09:17:13.055Z,2.17
2022-12-27T09:21:15.205Z,7.90
2022-12-27T09:25:16.726Z,2.17
2022-12-27T09:29:18.346Z,2.33
2022-12-27T09:33:19.707Z,1.70
2022-12-27T09:37:21.067Z,2.20
2022-12-27T09:46:14.616Z,1.80
2022-12-27T09:50:38.484Z,2.17
2022-12-27T09:54:42.528Z,2.15
2022-12-27T09:58:49.849Z,2.70
2022-12-27T10:02:51.699Z,1.80
2022-12-27T10:07:05.482Z,2.05
2022-12-27T10:11:38.715Z,2.05
2022-12-27T10:16:07.147Z,2.40
2022-12-27T10:20:22.059Z,1.45
2022-12-27T10:24:38.127Z,1.45
2022-12-27T10:28:41.914Z,1.45
2022-12-27T10:32:43.966Z,2.08
2022-12-27T10:36:48.404Z,1.75
2022-12-27T10:45:56.097Z,1.52
2022-12-27T10:50:11.511Z,1.42
2022-12-27T10:54:26.464Z,1.15
2022-12-27T11:03:21.941Z,1.50
2022-12-27T11:07:33.262Z,1.33
2022-12-27T11:11:34.661Z,1.45
2022-12-27T11:15:45.177Z,1.50
2022-12-27T11:19:47.485Z,1.40
2022-12-27T11:23:53.860Z,1.33
2022-12-27T11:28:02.249Z,1.00
2022-12-27T11:32:10.821Z,1.20
2022-12-27T11:36:20.006Z,1.20
2022-12-27T11:40:30.674Z,1.30
2022-12-27T11:44:37.087Z,1.05
2022-12-27T11:48:42.217Z,0.77
2022-12-27T11:53:02.571Z,2.88
2022-12-27T11:57:31.763Z,1.55
2022-12-27T12:02:20.992Z,1.48
2022-12-27T12:07:14.153Z,1.42
2022-12-27T12:11:24.760Z,1.50
2022-12-27T12:16:05.027Z,1.55
2022-12-27T12:20:43.245Z,1.30
2022-12-27T12:25:08.134Z,2.53
2022-12-27T12:29:37.654Z,1.60
2022-12-27T12:33:55.932Z,1.88
2022-12-27T12:38:19.303Z,1.70
2022-12-27T12:42:44.326Z,1.25
2022-12-27T12:47:16.474Z,1.17
2022-12-27T12:51:37.759Z,1.83
2022-12-27T12:55:52.811Z,1.60
2022-12-27T13:00:15.066Z,1.85
2022-12-27T13:04:40.477Z,1.20
2022-12-27T13:08:56.539Z,1.05
2022-12-27T13:13:21.822Z,1.27
2022-12-27T13:17:32.661Z,2.40
2022-12-27T13:22:05.169Z,1.25
2022-12-27T13:26:27.959Z,1.63
2022-12-27T13:31:26.570Z,1.38
2022-12-27T13:36:18.406Z,1.70
2022-12-27T13:40:31.543Z,1.05
2022-12-27T13:44:57.984Z,1.27
2022-12-27T13:49:17.949Z,2.53
2022-12-27T13:53:56.853Z,0.70
2022-12-27T13:58:29.477Z,0.88
2022-12-27T14:02:37.819Z,1.08
2022-12-27T14:07:07.366Z,1.30
2022-12-27T14:11:25.248Z,2.30
2022-12-27T14:16:02.115Z,1.33
2022-12-27T14:20:15.729Z,1.42
2022-12-27T14:24:43.565Z,1.30
2022-12-27T14:29:13.761Z,1.98
2022-12-27T14:33:46.277Z,1.38
2022-12-27T14:38:02.482Z,0.95
2022-12-27T14:42:37.897Z,1.20
2022-12-27T14:46:42.204Z,1.35
2022-12-27T14:51:50.369Z,1.17
2022-12-27T14:55:45.022Z,2.50
2022-12-27T15:00:01.323Z,1.33
2022-12-27T15:04:05.842Z,1.20
2022-12-27T15:08:24.818Z,0.93
2022-12-27T15:12:36.937Z,0.80
2022-12-27T15:16:54.140Z,1.73
2022-12-27T15:21:06.768Z,1.35
2022-12-27T15:25:08.558Z,1.40
2022-12-27T15:29:31.908Z,0.98
2022-12-27T15:33:49.626Z,1.42
2022-12-27T15:37:55.287Z,1.80
2022-12-27T15:42:29.255Z,3.03
2022-12-27T15:46:54.514Z,1.80
2022-12-27T15:51:25.565Z,2.13
2022-12-27T15:56:04.546Z,2.38
2022-12-27T16:00:31.089Z,2.90
2022-12-27T16:05:01.295Z,2.22
2022-12-27T16:09:23.362Z,3.35
2022-12-27T16:13:45.753Z,4.18
2022-12-27T16:17:55.493Z,4.20
2022-12-27T16:21:56.876Z,3.65
2022-12-27T16:26:09.658Z,2.50
2022-12-27T16:30:11.897Z,6.53
2022-12-27T16:34:25.692Z,11.63
2022-12-27T16:38:27.456Z,8.45
2022-12-27T16:43:00.895Z,6.20
2022-12-27T16:47:25.363Z,4.30
2022-12-27T16:51:29.813Z,4.13
2022-12-27T16:56:08.042Z,3.90
2022-12-27T17:00:22.891Z,2.80
2022-12-27T17:04:58.210Z,3.13
2022-12-27T17:09:12.463Z,2.92
2022-12-27T17:13:16.987Z,2.85
2022-12-27T17:17:22.960Z,3.10
2022-12-27T17:21:31.184Z,3.50
2022-12-27T17:25:44.999Z,4.57
2022-12-27T17:30:16.272Z,5.22
2022-12-27T17:34:55.815Z,3.38
2022-12-27T17:39:21.907Z,3.33
2022-12-27T17:44:22.309Z,3.95
2022-12-27T17:48:29.626Z,4.63
2022-12-27T17:52:49.475Z,4.65
2022-12-27T17:57:18.569Z,4.80
2022-12-27T18:01:20.100Z,5.22
2022-12-27T18:05:27.514Z,6.45
2022-12-27T18:09:43.788Z,6.38
2022-12-27T18:13:50.478Z,5.38
2022-12-27T18:17:54.101Z,4.10
2022-12-27T18:21:58.292Z,3.65
2022-12-27T18:26:13.123Z,3.45
2022-12-27T18:30:15.229Z,4.40
2022-12-27T18:34:19.694Z,3.67
2022-12-27T18:38:35.398Z,4.60
2022-12-27T18:42:41.125Z,4.68
2022-12-27T18:46:42.878Z,7.35
2022-12-27T18:50:50.801Z,7.45
2022-12-27T18:54:52.477Z,6.63
2022-12-27T18:59:19.599Z,6.55
2022-12-27T19:03:21.279Z,5.65
2022-12-27T19:07:22.820Z,4.18
2022-12-27T19:11:33.087Z,6.15
2022-12-27T19:15:42.571Z,4.75
2022-12-27T19:19:47.530Z,4.07
2022-12-27T19:23:49.508Z,4.65
2022-12-27T19:28:10.938Z,4.78
2022-12-27T19:32:12.558Z,5.03
2022-12-27T19:36:14.209Z,4.90
2022-12-27T19:40:16.223Z,4.68
2022-12-27T19:44:18.920Z,4.15
2022-12-27T19:48:20.429Z,4.93
2022-12-27T19:52:27.755Z,5.00
2022-12-27T19:56:29.423Z,4.90
2022-12-27T20:00:31.058Z,5.63
2022-12-27T20:04:35.165Z,4.80
2022-12-27T20:08:39.477Z,5.38
2022-12-27T20:12:41.849Z,4.63
2022-12-27T20:16:44.948Z,6.35
2022-12-27T20:20:47.013Z,6.47
2022-12-27T20:24:48.488Z,6.10
2022-12-27T20:28:50.083Z,7.63
2022-12-27T20:32:51.853Z,4.93
2022-12-27T20:36:55.483Z,5.18
2022-12-27T20:40:56.947Z,5.50
2022-12-27T20:44:58.417Z,5.38
2022-12-27T20:49:00.379Z,4.80
2022-12-27T20:53:01.789Z,5.47
2022-12-27T20:57:06.181Z,5.13
2022-12-27T21:01:12.595Z,6.22
2022-12-27T21:05:14.145Z,5.75
2022-12-27T21:09:15.653Z,6.25
2022-12-27T21:13:17.100Z,7.65
2022-12-27T21:17:18.816Z,6.43
2022-12-27T21:21:26.776Z,8.20
2022-12-27T21:25:29.299Z,7.32
2022-12-27T21:29:30.688Z,8.35
2022-12-27T21:33:32.844Z,8.98
2022-12-27T21:37:34.455Z,10.55
2022-12-27T21:41:38.304Z,9.63
2022-12-27T21:45:39.913Z,9.45
2022-12-27T21:49:45.165Z,8.65
2022-12-27T21:53:46.853Z,9.95
2022-12-27T21:57:48.307Z,9.27
2022-12-27T22:01:52.692Z,9.20
2022-12-27T22:05:54.303Z,8.80
2022-12-27T22:09:55.731Z,9.57
2022-12-27T22:13:57.500Z,10.13
2022-12-27T22:17:58.915Z,8.30
2022-12-27T22:22:00.302Z,8.60
2022-12-27T22:26:01.944Z,7.70
2022-12-27T22:30:03.642Z,7.10
2022-12-27T22:34:05.674Z,7.25
2022-12-27T22:38:07.216Z,7.90
2022-12-27T22:42:08.743Z,6.70
2022-12-27T22:46:11.678Z,6.55
2022-12-27T22:50:13.641Z,6.70
2022-12-27T22:54:17.821Z,6.65
2022-12-27T22:58:19.278Z,7.18
2022-12-27T23:02:20.833Z,7.28
2022-12-27T23:06:22.951Z,7.88
2022-12-27T23:10:24.380Z,7.53
2022-12-27T23:14:25.819Z,7.68
2022-12-27T23:18:28.182Z,6.60
2022-12-27T23:22:29.716Z,6.38
2022-12-27T23:26:31.163Z,6.20
2022-12-27T23:30:32.616Z,6.55
2022-12-27T23:34:34.178Z,6.18
2022-12-27T23:38:35.721Z,7.60
2022-12-27T23:42:37.232Z,6.13
2022-12-27T23:46:38.776Z,6.68
2022-12-27T23:50:40.250Z,6.57
2022-12-27T23:54:41.610Z,6.68
2022-12-27T23:58:44.063Z,7.18
